Time;durP1;ratioP1;P1;durP2;ratioP2;P2;SDS_P1;SDS_P2;PMS_P1;PMS_P2;Temp;Humidity;BMP_temperature;BMP_pressure;BME280_temperature;BME280_humidity;BME280_pressure;Samples;Min_cycle;Max_cycle;Signal;HPM_P1;HPM_P2
2020/12/19 00:00:39;;;;;;;37.00;19.33;;;-0.60;99.90;;;;;;5078196;28;20202;-62
2020/12/19 00:03:05;;;;;;;38.08;18.55;;;-0.60;99.90;;;;;;5076169;28;20233;-62
2020/12/19 00:05:32;;;;;;;52.13;19.20;;;-0.60;99.90;;;;;;5075213;28;20532;-61
2020/12/19 00:07:59;;;;;;;35.25;18.55;;;-0.60;99.90;;;;;;5071311;28;20296;-62
2020/12/19 00:10:25;;;;;;;44.80;19.88;;;-0.60;99.90;;;;;;5075649;28;20221;-62
2020/12/19 00:12:57;;;;;;;50.65;20.30;;;-0.60;99.90;;;;;;5072370;28;20394;-61
2020/12/19 00:15:23;;;;;;;47.67;22.45;;;-0.60;99.90;;;;;;5078685;28;20203;-61
2020/12/19 00:17:50;;;;;;;39.00;17.20;;;-0.50;99.90;;;;;;5072847;28;20225;-62
2020/12/19 00:20:17;;;;;;;41.63;20.80;;;-0.50;99.90;;;;;;5079971;28;20440;-63
2020/12/19 00:22:47;;;;;;;45.20;20.33;;;-0.40;99.90;;;;;;5072872;28;20230;-61
2020/12/19 00:25:14;;;;;;;40.33;19.50;;;-0.40;99.90;;;;;;5078614;28;20210;-61
2020/12/19 00:27:40;;;;;;;35.53;19.67;;;-0.40;99.90;;;;;;5073073;28;20273;-62
2020/12/19 00:30:08;;;;;;;41.58;20.13;;;-0.40;99.90;;;;;;5080376;28;20562;-61
2020/12/19 00:32:39;;;;;;;33.38;18.13;;;-0.30;99.90;;;;;;5071190;28;20525;-61
2020/12/19 00:35:06;;;;;;;38.83;17.17;;;-0.40;99.90;;;;;;5074799;28;20226;-61
2020/12/19 00:37:32;;;;;;;39.08;23.10;;;-0.30;99.90;;;;;;5073629;28;20203;-63
2020/12/19 00:39:59;;;;;;;46.20;19.63;;;0.20;99.90;;;;;;5070908;28;20210;-62
2020/12/19 00:42:26;;;;;;;46.40;21.23;;;0.30;99.90;;;;;;5075315;28;20226;-60
2020/12/19 00:44:52;;;;;;;38.35;16.83;;;-0.20;99.90;;;;;;5075010;28;20202;-62
2020/12/19 00:47:19;;;;;;;47.75;20.15;;;-0.20;99.90;;;;;;5077554;28;20284;-61
2020/12/19 00:49:46;;;;;;;31.27;17.45;;;0.50;99.90;;;;;;5076872;28;20210;-62
2020/12/19 00:52:12;;;;;;;34.33;16.92;;;-0.30;99.90;;;;;;5078445;28;20211;-61
2020/12/19 00:54:40;;;;;;;36.50;17.83;;;-0.30;99.90;;;;;;5080123;28;20357;-66
2020/12/19 00:57:07;;;;;;;29.73;17.55;;;-0.20;99.90;;;;;;5085592;28;20222;-62
2020/12/19 00:59:33;;;;;;;32.70;16.67;;;-0.20;99.90;;;;;;5078696;28;20322;-61
2020/12/19 01:02:00;;;;;;;26.25;14.07;;;-0.10;99.90;;;;;;5084317;28;20237;-61
2020/12/19 01:04:26;;;;;;;38.42;16.92;;;-0.20;99.90;;;;;;5076097;28;20209;-61
2020/12/19 01:06:53;;;;;;;43.50;14.23;;;-0.20;99.90;;;;;;5078662;28;20213;-62
2020/12/19 01:09:22;;;;;;;26.60;16.00;;;0.30;99.90;;;;;;5080355;28;20194;-61
2020/12/19 01:11:48;;;;;;;27.73;14.23;;;0.40;99.90;;;;;;5081898;28;20214;-62
2020/12/19 01:14:15;;;;;;;37.70;14.68;;;-0.20;99.90;;;;;;5080415;28;20206;-62
2020/12/19 01:16:41;;;;;;;44.33;16.30;;;-0.10;99.90;;;;;;5085573;28;20400;-62
2020/12/19 01:19:08;;;;;;;32.85;13.88;;;0.50;99.90;;;;;;5078229;28;20679;-62
2020/12/19 01:21:34;;;;;;;27.98;16.42;;;-0.20;99.90;;;;;;5078503;28;20230;-61
2020/12/19 01:24:01;;;;;;;27.45;14.38;;;-0.20;99.90;;;;;;5067202;28;20543;-61
2020/12/19 01:26:28;;;;;;;25.58;14.82;;;-0.20;99.90;;;;;;5077675;28;20194;-62
2020/12/19 01:28:55;;;;;;;40.00;17.73;;;-0.30;99.90;;;;;;5082468;28;20218;-62
2020/12/19 01:31:22;;;;;;;46.85;14.90;;;-0.30;99.90;;;;;;5077755;28;20209;-61
2020/12/19 01:33:50;;;;;;;30.77;14.75;;;-0.20;99.90;;;;;;5082100;28;20413;-62
2020/12/19 01:36:20;;;;;;;42.47;17.40;;;-0.20;99.90;;;;;;5077819;28;20489;-61
2020/12/19 01:38:47;;;;;;;31.83;15.02;;;-0.30;99.90;;;;;;5082772;28;20203;-61
2020/12/19 01:41:13;;;;;;;30.13;15.35;;;-0.20;99.90;;;;;;5072279;28;20203;-61
2020/12/19 01:43:53;;;;;;;41.90;17.42;;;-0.30;99.90;;;;;;5082275;28;20245;-62
2020/12/19 01:46:43;;;;;;;37.60;18.20;;;-0.30;99.90;;;;;;5080821;28;20205;-61
2020/12/19 01:49:10;;;;;;;30.33;14.35;;;0.30;99.90;;;;;;5077988;28;20471;-61
2020/12/19 01:51:37;;;;;;;41.25;17.00;;;-0.30;99.90;;;;;;5074957;28;20436;-62
2020/12/19 01:54:08;;;;;;;37.95;16.40;;;-0.20;99.90;;;;;;5077965;28;20207;-61
2020/12/19 01:56:44;;;;;;;29.23;16.25;;;-0.30;99.90;;;;;;5078980;28;20206;-61
2020/12/19 01:59:15;;;;;;;32.22;15.35;;;-0.20;99.90;;;;;;5071603;28;20260;-62
2020/12/19 02:01:46;;;;;;;35.97;16.30;;;-0.10;99.90;;;;;;5073529;28;20392;-61
2020/12/19 02:04:13;;;;;;;32.10;15.73;;;0.50;99.90;;;;;;5081293;28;20207;-61
2020/12/19 02:06:42;;;;;;;37.42;16.05;;;-0.20;99.90;;;;;;5074922;28;20400;-61
2020/12/19 02:09:08;;;;;;;28.92;15.05;;;-0.10;99.90;;;;;;5082794;28;20207;-62
2020/12/19 02:11:35;;;;;;;26.20;15.15;;;-0.10;99.90;;;;;;5077920;28;20225;-61
2020/12/19 02:14:07;;;;;;;36.00;16.42;;;-0.10;99.90;;;;;;5082443;28;20215;-62
2020/12/19 02:16:34;;;;;;;36.75;18.27;;;0.00;99.90;;;;;;5073940;28;20210;-61
2020/12/19 02:19:01;;;;;;;30.25;16.30;;;0.50;99.90;;;;;;5079057;28;20410;-61
2020/12/19 02:21:27;;;;;;;30.00;16.15;;;0.00;99.90;;;;;;5075064;28;20315;-61
2020/12/19 02:23:54;;;;;;;34.08;16.83;;;0.00;99.90;;;;;;5082594;28;20409;-61
2020/12/19 02:26:21;;;;;;;32.80;15.38;;;0.00;99.90;;;;;;5073229;28;20537;-61
2020/12/19 02:28:47;;;;;;;26.33;13.50;;;0.80;99.90;;;;;;5078065;28;20202;-61
2020/12/19 02:31:14;;;;;;;27.77;14.63;;;0.20;99.90;;;;;;5078802;28;20211;-63
2020/12/19 02:33:40;;;;;;;44.30;17.60;;;0.10;99.90;;;;;;5071629;28;20241;-62
2020/12/19 02:36:07;;;;;;;39.65;17.17;;;0.10;99.90;;;;;;5084311;28;20240;-62
2020/12/19 02:38:34;;;;;;;32.45;14.55;;;0.10;99.90;;;;;;5075367;28;20203;-62
2020/12/19 02:41:00;;;;;;;44.58;15.95;;;0.10;99.90;;;;;;5083094;28;20207;-60
2020/12/19 02:43:27;;;;;;;34.72;16.70;;;0.10;99.90;;;;;;5072838;28;20537;-62
2020/12/19 02:45:54;;;;;;;32.45;15.77;;;0.20;99.90;;;;;;5079999;28;20208;-62
2020/12/19 02:48:20;;;;;;;35.00;16.85;;;0.10;99.90;;;;;;5078111;28;20212;-61
2020/12/19 02:50:47;;;;;;;41.88;19.00;;;0.30;99.90;;;;;;5077035;28;20205;-61
2020/12/19 02:53:13;;;;;;;47.10;20.05;;;0.20;99.90;;;;;;5075568;28;20213;-62
2020/12/19 02:55:40;;;;;;;41.40;18.50;;;0.10;99.90;;;;;;5074969;28;20203;-62
2020/12/19 02:58:07;;;;;;;38.22;18.15;;;0.80;99.90;;;;;;5078448;28;20202;-62
2020/12/19 03:00:33;;;;;;;32.83;17.75;;;0.00;99.90;;;;;;5078137;28;20210;-62
2020/12/19 03:03:00;;;;;;;39.88;19.00;;;0.00;99.90;;;;;;5081092;28;20222;-62
2020/12/19 03:05:26;;;;;;;43.53;19.05;;;-0.10;99.90;;;;;;5079699;28;20210;-61
2020/12/19 03:07:53;;;;;;;45.33;19.52;;;-0.10;99.90;;;;;;5073807;28;20221;-61
2020/12/19 03:10:20;;;;;;;32.30;17.48;;;0.10;99.90;;;;;;5080538;28;20527;-61
2020/12/19 03:12:47;;;;;;;38.70;16.63;;;-0.10;99.90;;;;;;5071502;28;20206;-61
2020/12/19 03:15:13;;;;;;;42.38;19.60;;;-0.10;99.90;;;;;;5080570;28;20207;-61
2020/12/19 03:17:40;;;;;;;38.03;15.52;;;-0.20;99.90;;;;;;5081105;28;20207;-61
2020/12/19 03:20:06;;;;;;;42.20;19.95;;;-0.20;99.90;;;;;;5074336;28;20269;-61
2020/12/19 03:22:33;;;;;;;39.08;17.13;;;-0.20;99.90;;;;;;5084048;28;20225;-61
2020/12/19 03:24:59;;;;;;;35.40;15.15;;;-0.10;99.90;;;;;;5068654;28;20665;-62
2020/12/19 03:27:26;;;;;;;46.70;16.27;;;-0.10;99.90;;;;;;5081826;28;20594;-61
2020/12/19 03:29:52;;;;;;;37.50;16.70;;;-0.10;99.90;;;;;;5075682;28;20270;-62
2020/12/19 03:32:19;;;;;;;33.00;18.33;;;0.10;99.90;;;;;;5076616;28;20210;-62
2020/12/19 03:34:45;;;;;;;38.75;18.38;;;-0.30;99.90;;;;;;5080514;28;20223;-62
2020/12/19 03:37:12;;;;;;;31.40;18.85;;;-0.20;99.90;;;;;;5077987;28;20207;-63
2020/12/19 03:39:39;;;;;;;36.38;16.15;;;-0.30;99.90;;;;;;5079078;28;20210;-62
2020/12/19 03:42:06;;;;;;;33.65;16.00;;;-0.30;99.90;;;;;;5074080;28;20270;-62
2020/12/19 03:44:32;;;;;;;29.73;14.77;;;-0.40;99.90;;;;;;5067922;28;20222;-62
2020/12/19 03:46:59;;;;;;;43.00;18.50;;;-0.40;99.90;;;;;;5083540;28;20206;-63
2020/12/19 03:49:25;;;;;;;38.85;17.20;;;-0.40;99.90;;;;;;5081976;28;20209;-62
2020/12/19 03:51:52;;;;;;;36.70;15.82;;;-0.40;99.90;;;;;;5083942;28;20209;-62
2020/12/19 03:54:18;;;;;;;31.92;15.32;;;-0.60;99.90;;;;;;5074389;28;20274;-62
2020/12/19 03:56:45;;;;;;;33.67;18.95;;;-0.60;99.90;;;;;;5076589;28;20210;-62
2020/12/19 03:59:12;;;;;;;32.35;14.63;;;-0.20;99.90;;;;;;5078291;28;20201;-62
2020/12/19 04:01:38;;;;;;;40.53;18.08;;;-0.50;99.90;;;;;;5074599;28;20210;-62
2020/12/19 04:04:05;;;;;;;36.50;16.95;;;-0.40;99.90;;;;;;5082989;28;20472;-61
2020/12/19 04:06:32;;;;;;;38.10;17.33;;;-0.50;99.90;;;;;;5074185;28;20203;-60
2020/12/19 04:08:58;;;;;;;38.45;16.45;;;0.50;99.90;;;;;;5080670;28;20213;-61
2020/12/19 04:11:25;;;;;;;38.75;20.20;;;-0.50;99.90;;;;;;5078285;28;20207;-63
2020/12/19 04:13:51;;;;;;;41.47;20.50;;;-0.40;99.90;;;;;;5075461;28;20218;-61
2020/12/19 04:16:18;;;;;;;30.23;15.77;;;-0.60;99.90;;;;;;5071759;28;20207;-62
2020/12/19 04:18:45;;;;;;;41.42;16.50;;;-0.40;99.90;;;;;;5081903;28;20217;-62
2020/12/19 04:21:11;;;;;;;34.80;17.70;;;-0.30;99.90;;;;;;5074968;28;20279;-61
2020/12/19 04:23:38;;;;;;;29.08;17.40;;;-0.40;99.90;;;;;;5079720;28;20426;-60
2020/12/19 04:26:05;;;;;;;30.90;14.82;;;-0.60;99.90;;;;;;5077072;28;20212;-62
2020/12/19 04:28:31;;;;;;;38.03;17.90;;;-0.50;99.90;;;;;;5081609;28;20202;-61
2020/12/19 04:30:58;;;;;;;33.85;15.88;;;-0.50;99.90;;;;;;5085209;28;20394;-61
2020/12/19 04:33:24;;;;;;;28.45;16.40;;;-0.30;99.90;;;;;;5075111;28;20405;-61
2020/12/19 04:35:51;;;;;;;41.22;16.60;;;-0.70;99.90;;;;;;5081374;28;20202;-61
2020/12/19 04:38:18;;;;;;;24.08;15.15;;;-0.30;99.90;;;;;;5078628;28;20210;-61
2020/12/19 04:40:46;;;;;;;35.97;17.25;;;-0.50;99.90;;;;;;5084738;28;20202;-62
2020/12/19 04:43:19;;;;;;;30.33;16.45;;;-0.60;99.90;;;;;;5076977;28;20226;-62
2020/12/19 04:45:50;;;;;;;21.08;13.65;;;-0.60;99.90;;;;;;5079385;28;20516;-61
2020/12/19 04:48:18;;;;;;;38.53;18.63;;;-0.40;99.90;;;;;;5078912;28;20202;-62
2020/12/19 04:50:47;;;;;;;31.67;16.52;;;-0.60;99.90;;;;;;5077492;28;20202;-62
2020/12/19 04:53:18;;;;;;;32.53;15.82;;;-0.20;99.90;;;;;;5082229;28;20464;-61
2020/12/19 04:55:45;;;;;;;26.05;15.75;;;-0.60;99.90;;;;;;5084017;28;20448;-61
2020/12/19 04:58:15;;;;;;;31.00;16.65;;;-0.60;99.90;;;;;;5075563;28;20312;-62
2020/12/19 05:00:42;;;;;;;34.08;17.95;;;-0.60;99.90;;;;;;5081593;28;20214;-61
2020/12/19 05:03:09;;;;;;;34.40;17.55;;;-0.70;99.90;;;;;;5080652;28;20230;-61
2020/12/19 05:05:41;;;;;;;37.67;16.85;;;-0.80;99.90;;;;;;5081863;28;20206;-62
2020/12/19 05:08:09;;;;;;;41.10;18.70;;;-0.70;99.90;;;;;;5081746;28;20208;-61
2020/12/19 05:10:36;;;;;;;37.38;16.60;;;0.10;99.90;;;;;;5076125;28;20202;-61
2020/12/19 05:13:02;;;;;;;35.78;16.70;;;-0.60;99.90;;;;;;5072256;28;20206;-62
2020/12/19 05:15:29;;;;;;;34.72;17.40;;;-0.70;99.90;;;;;;5076473;28;20390;-62
2020/12/19 05:17:58;;;;;;;32.47;17.38;;;-0.70;99.90;;;;;;5077365;28;20220;-61
2020/12/19 05:20:28;;;;;;;34.40;16.73;;;-0.80;99.90;;;;;;5053926;28;667865;-62
2020/12/19 05:22:56;;;;;;;33.40;18.60;;;-0.60;99.90;;;;;;5084664;28;20230;-61
2020/12/19 05:25:25;;;;;;;40.95;16.98;;;0.10;99.90;;;;;;5071927;28;20210;-60
2020/12/19 05:27:52;;;;;;;27.58;16.27;;;-0.60;99.90;;;;;;5083062;28;20202;-62
2020/12/19 05:30:20;;;;;;;37.28;20.02;;;-0.40;99.90;;;;;;5078609;28;20241;-60
2020/12/19 05:32:48;;;;;;;28.80;15.60;;;-0.70;99.90;;;;;;5081641;28;20282;-60
2020/12/19 05:35:17;;;;;;;33.70;18.38;;;-0.60;99.90;;;;;;5078782;28;20548;-60
2020/12/19 05:38:03;;;;;;;29.73;18.10;;;0.10;99.90;;;;;;5085299;28;20225;-60
2020/12/19 05:40:31;;;;;;;38.45;22.00;;;-0.80;99.90;;;;;;5074550;28;20203;-60
2020/12/19 05:42:58;;;;;;;36.55;16.83;;;-0.80;99.90;;;;;;5079083;28;20226;-61
2020/12/19 05:45:27;;;;;;;32.47;19.10;;;-0.80;99.90;;;;;;5082600;28;20429;-62
2020/12/19 05:47:54;;;;;;;43.13;19.20;;;-0.80;99.90;;;;;;5078573;28;20207;-60
2020/12/19 05:50:22;;;;;;;32.67;18.40;;;-0.80;99.90;;;;;;5078491;28;20619;-60
2020/12/19 05:52:49;;;;;;;45.70;20.10;;;-0.60;99.90;;;;;;5075858;28;20203;-60
2020/12/19 05:55:18;;;;;;;38.75;19.30;;;-0.80;99.90;;;;;;5081861;28;20358;-60
2020/12/19 05:57:46;;;;;;;43.60;19.95;;;-0.80;99.90;;;;;;5075625;28;20205;-60
2020/12/19 06:00:17;;;;;;;40.25;20.40;;;-0.20;99.90;;;;;;5076643;28;20199;-60
2020/12/19 06:02:45;;;;;;;39.72;21.35;;;-0.80;99.90;;;;;;5081243;28;20237;-60
2020/12/19 06:05:14;;;;;;;44.42;19.75;;;-0.80;99.90;;;;;;5088286;28;20544;-60
2020/12/19 06:07:43;;;;;;;46.80;22.48;;;-0.90;99.90;;;;;;5079189;28;20203;-62
2020/12/19 06:10:13;;;;;;;35.45;21.83;;;-1.00;99.90;;;;;;5083053;28;20573;-60
2020/12/19 06:12:52;;;;;;;36.20;19.45;;;-0.20;99.90;;;;;;5078173;28;20200;-61
2020/12/19 06:15:47;;;;;;;47.75;23.08;;;-1.00;99.90;;;;;;5073011;28;20203;-61
2020/12/19 06:18:38;;;;;;;38.15;20.63;;;-0.90;99.90;;;;;;5079990;28;20226;-61
2020/12/19 06:21:08;;;;;;;44.80;24.42;;;-1.00;99.90;;;;;;5080838;28;20236;-61
2020/12/19 06:23:36;;;;;;;49.28;23.38;;;-1.00;99.90;;;;;;5083493;28;20230;-61
2020/12/19 06:26:04;;;;;;;38.28;22.15;;;-1.00;99.90;;;;;;5082271;28;20203;-60
2020/12/19 06:28:42;;;;;;;38.10;20.17;;;-1.00;99.90;;;;;;5078506;28;20209;-62
2020/12/19 06:31:09;;;;;;;55.45;23.55;;;-0.80;99.90;;;;;;5079860;28;20374;-61
2020/12/19 06:33:37;;;;;;;44.28;25.00;;;-1.10;99.90;;;;;;5074562;28;20409;-61
2020/12/19 06:36:17;;;;;;;48.70;24.10;;;-1.10;99.90;;;;;;5081085;28;20233;-60
2020/12/19 06:38:49;;;;;;;51.60;23.40;;;-1.00;99.90;;;;;;5077420;28;20529;-60
2020/12/19 06:41:37;;;;;;;47.05;20.83;;;-0.20;99.90;;;;;;5082730;28;20202;-61
2020/12/19 06:44:08;;;;;;;45.88;21.02;;;-0.90;99.90;;;;;;5076121;28;20230;-60
2020/12/19 06:46:36;;;;;;;39.97;20.88;;;-0.90;99.90;;;;;;5080239;28;20226;-60
2020/12/19 06:49:22;;;;;;;45.03;24.05;;;-0.90;99.90;;;;;;5072271;28;20386;-60
2020/12/19 06:52:12;;;;;;;52.78;24.20;;;-0.10;99.90;;;;;;5080318;28;20211;-61
2020/12/19 06:54:44;;;;;;;49.28;23.60;;;-0.90;99.90;;;;;;5072382;28;20202;-60
2020/12/19 06:57:31;;;;;;;47.97;23.83;;;0.00;99.90;;;;;;5083210;28;20214;-60
2020/12/19 07:00:18;;;;;;;52.28;27.65;;;-0.90;99.90;;;;;;5078562;28;20202;-65
2020/12/19 07:02:56;;;;;;;47.65;22.25;;;-0.90;99.90;;;;;;5083302;28;20217;-60
2020/12/19 07:05:27;;;;;;;49.20;27.23;;;-0.90;99.90;;;;;;5074136;28;20201;-61
2020/12/19 07:08:17;;;;;;;57.85;24.35;;;-0.90;99.90;;;;;;5081577;28;20216;-60
2020/12/19 07:10:44;;;;;;;47.08;22.20;;;-0.80;99.90;;;;;;5074646;28;20198;-60
2020/12/19 07:13:11;;;;;;;51.60;23.05;;;-0.80;99.90;;;;;;5083035;28;20225;-59
2020/12/19 07:15:45;;;;;;;39.10;22.55;;;-0.80;99.90;;;;;;5073535;28;20665;-60
2020/12/19 07:18:24;;;;;;;43.05;23.08;;;-0.80;99.90;;;;;;5083869;28;20225;-60
2020/12/19 07:21:04;;;;;;;43.33;24.27;;;0.10;99.90;;;;;;5074222;28;20245;-60
2020/12/19 07:23:32;;;;;;;39.83;21.38;;;-0.80;99.90;;;;;;5073360;28;20221;-60
2020/12/19 07:26:00;;;;;;;45.05;23.15;;;-0.80;99.90;;;;;;5075783;28;20214;-60
2020/12/19 07:28:27;;;;;;;36.70;22.65;;;-0.80;99.90;;;;;;5079687;28;20416;-60
2020/12/19 07:30:54;;;;;;;50.47;25.27;;;-0.60;99.90;;;;;;5075021;28;20398;-60
2020/12/19 07:33:21;;;;;;;48.80;22.10;;;-0.70;99.90;;;;;;5082273;28;20236;-61
2020/12/19 07:35:48;;;;;;;43.95;24.38;;;-0.60;99.90;;;;;;5074146;28;20203;-62
2020/12/19 07:38:15;;;;;;;54.90;25.02;;;-0.70;99.90;;;;;;5079380;28;20556;-60
2020/12/19 07:40:42;;;;;;;55.85;26.35;;;0.00;99.90;;;;;;5070484;28;20527;-60
2020/12/19 07:43:11;;;;;;;50.15;24.65;;;-0.60;99.90;;;;;;5078591;28;20409;-61
2020/12/19 07:45:38;;;;;;;41.60;22.05;;;-0.50;99.90;;;;;;5079383;28;20199;-60
2020/12/19 07:48:06;;;;;;;42.10;21.95;;;0.10;99.90;;;;;;5079100;28;20222;-59
2020/12/19 07:50:34;;;;;;;39.33;23.23;;;0.20;99.90;;;;;;5082142;28;20265;-60
2020/12/19 07:53:08;;;;;;;46.17;20.65;;;-0.80;99.90;;;;;;5072823;28;20345;-60
2020/12/19 07:55:35;;;;;;;42.55;23.75;;;-0.30;99.90;;;;;;5082017;28;20251;-61
2020/12/19 07:58:03;;;;;;;48.38;22.85;;;-0.20;99.90;;;;;;5072146;28;20507;-60
2020/12/19 08:00:31;;;;;;;57.17;26.67;;;-0.30;99.90;;;;;;5078696;28;20245;-61
2020/12/19 08:02:57;;;;;;;42.00;23.63;;;-0.30;99.90;;;;;;5076224;28;20230;-60
2020/12/19 08:05:24;;;;;;;52.90;24.15;;;0.50;99.90;;;;;;5079199;28;20206;-61
2020/12/19 08:07:52;;;;;;;48.75;28.80;;;-0.10;99.90;;;;;;5078837;28;20205;-60
2020/12/19 08:10:19;;;;;;;46.55;26.80;;;-0.10;99.90;;;;;;5079892;28;20206;-61
2020/12/19 08:12:46;;;;;;;61.75;29.17;;;0.00;99.90;;;;;;5077736;28;20366;-61
2020/12/19 08:15:16;;;;;;;39.60;24.70;;;0.00;99.90;;;;;;5076450;28;20611;-61
2020/12/19 08:17:46;;;;;;;61.03;30.17;;;0.00;99.90;;;;;;5078225;28;20202;-62
2020/12/19 08:20:16;;;;;;;47.63;24.95;;;0.50;99.90;;;;;;5081059;28;20560;-61
2020/12/19 08:22:44;;;;;;;53.53;28.85;;;0.10;99.90;;;;;;5073059;28;20262;-61
2020/12/19 08:25:11;;;;;;;59.03;28.92;;;0.20;99.90;;;;;;5080634;28;20206;-62
2020/12/19 08:27:50;;;;;;;62.88;29.05;;;0.20;99.90;;;;;;5075304;28;20364;-60
2020/12/19 08:30:29;;;;;;;60.08;30.55;;;0.20;99.90;;;;;;5077643;28;20255;-61
2020/12/19 08:33:00;;;;;;;62.38;32.90;;;0.30;99.90;;;;;;5072313;28;20305;-61
2020/12/19 08:35:28;;;;;;;62.75;31.20;;;0.30;99.90;;;;;;5077898;28;20223;-61
2020/12/19 08:38:01;;;;;;;47.78;29.33;;;0.40;99.90;;;;;;5076413;28;20211;-61
2020/12/19 08:40:35;;;;;;;44.72;28.88;;;0.50;99.90;;;;;;5072654;28;20198;-60
2020/12/19 08:43:02;;;;;;;49.45;26.58;;;0.40;99.90;;;;;;5078253;28;20233;-61
2020/12/19 08:45:31;;;;;;;59.67;28.27;;;0.50;99.90;;;;;;5075426;28;20218;-61
2020/12/19 08:48:03;;;;;;;60.00;28.38;;;0.60;99.90;;;;;;5073329;28;20632;-62
2020/12/19 08:50:32;;;;;;;42.55;23.80;;;0.70;99.90;;;;;;5077202;28;20273;-62
2020/12/19 08:53:28;;;;;;;50.65;26.23;;;0.60;99.90;;;;;;5073976;28;20413;-61
2020/12/19 08:55:55;;;;;;;42.33;23.10;;;0.90;99.90;;;;;;5075274;28;20221;-62
2020/12/19 08:58:27;;;;;;;34.97;21.73;;;1.00;99.90;;;;;;5072353;28;20206;-62
2020/12/19 09:00:58;;;;;;;45.42;22.60;;;0.80;99.90;;;;;;5076855;28;20202;-62
2020/12/19 09:03:27;;;;;;;34.35;20.40;;;0.90;99.90;;;;;;5075312;28;20226;-61
2020/12/19 09:05:59;;;;;;;40.78;21.42;;;0.90;99.90;;;;;;5078359;28;20202;-61
2020/12/19 09:08:35;;;;;;;38.42;23.85;;;1.60;99.90;;;;;;5074378;28;20214;-61
2020/12/19 09:11:04;;;;;;;33.72;19.20;;;1.00;99.90;;;;;;5074703;28;20820;-59
2020/12/19 09:13:31;;;;;;;31.75;17.73;;;1.00;99.90;;;;;;5083194;28;20401;-62
2020/12/19 09:16:04;;;;;;;38.10;19.75;;;1.10;99.90;;;;;;5081193;28;20210;-61
2020/12/19 09:18:33;;;;;;;29.45;19.27;;;1.20;99.90;;;;;;5080068;28;20208;-61
2020/12/19 09:21:02;;;;;;;25.60;14.63;;;1.20;99.90;;;;;;5081011;28;20273;-62
2020/12/19 09:23:29;;;;;;;30.63;17.15;;;1.90;99.90;;;;;;5080929;28;20245;-62
2020/12/19 09:25:59;;;;;;;26.90;16.45;;;1.30;99.90;;;;;;5078855;28;20213;-61
2020/12/19 09:28:27;;;;;;;24.85;12.77;;;1.30;99.90;;;;;;5083320;28;20485;-61
2020/12/19 09:30:55;;;;;;;21.92;12.20;;;1.40;99.90;;;;;;5074138;28;20222;-61
2020/12/19 09:33:22;;;;;;;23.15;15.32;;;1.40;99.90;;;;;;5081446;28;20198;-63
2020/12/19 09:35:49;;;;;;;25.20;16.40;;;1.50;99.90;;;;;;5075524;28;20260;-62
2020/12/19 09:38:16;;;;;;;24.70;14.43;;;1.50;99.90;;;;;;5079582;28;20202;-61
2020/12/19 09:40:43;;;;;;;18.17;11.52;;;1.60;99.90;;;;;;5073218;28;20208;-62
2020/12/19 09:43:10;;;;;;;23.50;14.43;;;1.70;99.90;;;;;;5082079;28;20478;-62
2020/12/19 09:45:37;;;;;;;24.48;15.18;;;1.70;99.90;;;;;;5077854;28;20217;-60
2020/12/19 09:48:05;;;;;;;25.20;13.15;;;1.80;99.90;;;;;;5084898;28;21243;-61
2020/12/19 09:50:32;;;;;;;20.35;14.20;;;1.90;99.90;;;;;;5076878;28;20285;-60
2020/12/19 09:52:59;;;;;;;22.77;12.60;;;2.00;99.90;;;;;;5080638;28;20494;-61
2020/12/19 09:55:31;;;;;;;21.15;11.70;;;2.10;99.90;;;;;;5083763;28;20198;-61
2020/12/19 09:57:59;;;;;;;15.38;11.13;;;2.00;99.90;;;;;;5076244;28;20527;-62
2020/12/19 10:00:26;;;;;;;29.83;14.05;;;2.90;99.90;;;;;;5076772;28;20532;-61
2020/12/19 10:02:54;;;;;;;24.00;14.05;;;2.20;99.90;;;;;;5080090;28;20230;-60
2020/12/19 10:05:21;;;;;;;23.27;13.95;;;2.20;99.90;;;;;;5082390;28;20584;-61
2020/12/19 10:07:48;;;;;;;21.95;14.23;;;2.20;99.90;;;;;;5081860;28;20203;-61
2020/12/19 10:10:16;;;;;;;19.38;11.43;;;2.10;99.90;;;;;;5077914;28;20204;-61
2020/12/19 10:12:42;;;;;;;17.20;12.27;;;2.20;99.90;;;;;;5078839;28;20213;-61
2020/12/19 10:15:10;;;;;;;22.45;13.90;;;2.50;99.90;;;;;;5076627;28;20385;-64
2020/12/19 10:17:38;;;;;;;22.30;10.75;;;2.30;99.90;;;;;;5072750;28;20207;-61
2020/12/19 10:20:06;;;;;;;18.40;12.50;;;2.20;99.90;;;;;;5079973;28;20232;-61
2020/12/19 10:22:33;;;;;;;11.52;9.52;;;2.20;99.90;;;;;;5076376;28;20405;-61
2020/12/19 10:25:01;;;;;;;14.85;9.85;;;2.30;99.90;;;;;;5080440;28;20279;-62
2020/12/19 10:27:28;;;;;;;18.00;10.00;;;2.40;99.90;;;;;;5074229;28;20207;-62
2020/12/19 10:29:55;;;;;;;22.77;11.80;;;2.40;99.90;;;;;;5079025;28;20385;-65
2020/12/19 10:32:21;;;;;;;18.67;11.35;;;2.30;99.90;;;;;;5067688;28;20296;-61
2020/12/19 10:34:48;;;;;;;17.10;11.68;;;2.80;99.90;;;;;;5078167;28;20564;-62
2020/12/19 10:37:15;;;;;;;20.02;10.48;;;2.70;99.90;;;;;;5076805;28;20832;-61
2020/12/19 10:39:41;;;;;;;23.30;10.10;;;2.60;99.90;;;;;;5073735;28;20211;-62
2020/12/19 10:42:08;;;;;;;14.20;10.02;;;2.70;99.90;;;;;;5075243;28;20220;-61
2020/12/19 10:44:34;;;;;;;17.25;11.50;;;2.80;99.90;;;;;;5075809;28;20626;-62
2020/12/19 10:47:01;;;;;;;15.68;9.05;;;2.80;99.90;;;;;;5077366;28;20209;-61
2020/12/19 10:49:28;;;;;;;14.90;9.88;;;2.80;99.90;;;;;;5077287;28;20200;-62
2020/12/19 10:51:54;;;;;;;16.58;9.73;;;2.80;99.90;;;;;;5081572;28;20271;-62
2020/12/19 10:54:21;;;;;;;14.27;9.55;;;3.00;99.90;;;;;;5076921;28;20884;-62
2020/12/19 10:56:55;;;;;;;15.88;9.45;;;3.20;99.90;;;;;;5069559;28;20213;-62
2020/12/19 10:59:22;;;;;;;16.83;11.88;;;3.20;99.90;;;;;;5078769;28;20278;-62
2020/12/19 11:01:49;;;;;;;14.20;11.15;;;3.10;99.90;;;;;;5071763;28;20203;-61
2020/12/19 11:04:16;;;;;;;21.33;11.80;;;3.00;99.90;;;;;;5074293;28;20222;-63
2020/12/19 11:06:43;;;;;;;12.80;9.45;;;3.00;99.90;;;;;;5080973;28;20249;-62
2020/12/19 11:09:13;;;;;;;15.15;8.63;;;2.80;99.90;;;;;;5078396;28;20212;-62
2020/12/19 11:11:40;;;;;;;18.00;11.13;;;3.00;99.90;;;;;;5075038;28;20207;-62
2020/12/19 11:14:07;;;;;;;11.25;8.65;;;3.10;99.90;;;;;;5076144;28;20208;-62
2020/12/19 11:16:36;;;;;;;16.70;10.20;;;3.00;99.90;;;;;;5077329;28;20275;-63
2020/12/19 11:19:02;;;;;;;15.57;10.75;;;3.40;99.90;;;;;;5072974;28;20557;-62
2020/12/19 11:21:29;;;;;;;17.90;11.15;;;3.30;99.90;;;;;;5079566;28;20585;-62
2020/12/19 11:23:56;;;;;;;12.48;8.38;;;3.40;99.90;;;;;;5072462;28;20240;-62
2020/12/19 11:26:23;;;;;;;14.57;8.65;;;3.20;99.90;;;;;;5072481;28;20205;-62
2020/12/19 11:28:52;;;;;;;13.15;9.68;;;3.40;99.90;;;;;;5072768;28;20206;-62
2020/12/19 11:31:26;;;;;;;12.20;8.65;;;3.50;99.90;;;;;;5071943;28;20205;-65
2020/12/19 11:33:55;;;;;;;21.17;10.25;;;3.80;99.90;;;;;;5076155;28;20224;-63
2020/12/19 11:36:22;;;;;;;15.18;10.23;;;3.40;99.90;;;;;;5081094;28;20207;-61
2020/12/19 11:38:50;;;;;;;13.70;9.77;;;3.40;99.90;;;;;;5072460;28;20208;-63
2020/12/19 11:41:33;;;;;;;17.48;10.00;;;3.40;99.90;;;;;;5079567;28;20210;-62
2020/12/19 11:44:00;;;;;;;13.82;9.07;;;3.50;99.90;;;;;;5071457;28;20248;-62
2020/12/19 11:46:27;;;;;;;16.88;10.27;;;3.50;99.90;;;;;;5076758;28;20465;-63
2020/12/19 11:48:54;;;;;;;19.48;10.70;;;3.50;99.90;;;;;;5071495;28;20220;-61
2020/12/19 11:51:32;;;;;;;21.20;11.13;;;3.70;99.90;;;;;;5072975;28;20206;-66
2020/12/19 11:54:01;;;;;;;14.18;9.40;;;3.60;99.90;;;;;;5076442;28;20216;-63
2020/12/19 11:56:29;;;;;;;13.15;9.43;;;3.60;99.90;;;;;;5072803;28;20275;-62
2020/12/19 11:58:57;;;;;;;18.58;11.20;;;3.90;99.90;;;;;;5077928;28;20206;-63
2020/12/19 12:01:28;;;;;;;14.88;8.82;;;3.90;99.90;;;;;;5073107;28;20467;-62
2020/12/19 12:03:57;;;;;;;15.10;9.57;;;3.60;99.90;;;;;;5086467;28;20231;-62
2020/12/19 12:06:32;;;;;;;16.92;9.80;;;3.60;99.90;;;;;;5075804;28;20209;-63
2020/12/19 12:09:02;;;;;;;12.68;9.50;;;3.70;99.90;;;;;;5068419;28;20291;-62
2020/12/19 12:11:30;;;;;;;12.25;9.45;;;3.70;99.90;;;;;;5079939;28;20240;-62
2020/12/19 12:13:58;;;;;;;17.17;10.73;;;4.00;99.90;;;;;;5072781;28;20206;-62
2020/12/19 12:16:26;;;;;;;12.90;8.73;;;4.00;99.90;;;;;;5073985;28;20213;-63
2020/12/19 12:18:54;;;;;;;15.80;9.73;;;3.90;99.90;;;;;;5074132;28;20490;-63
2020/12/19 12:21:21;;;;;;;15.40;8.90;;;3.70;99.90;;;;;;5069942;28;20240;-63
2020/12/19 12:23:49;;;;;;;15.00;8.30;;;3.90;99.90;;;;;;5076323;28;20267;-62
2020/12/19 12:26:23;;;;;;;12.63;8.10;;;4.30;99.90;;;;;;5076871;28;20225;-62
2020/12/19 12:28:51;;;;;;;12.20;8.13;;;4.10;99.90;;;;;;5075373;28;20204;-62
2020/12/19 12:31:22;;;;;;;13.50;10.95;;;4.10;99.90;;;;;;5064225;28;20522;-62
2020/12/19 12:33:49;;;;;;;17.52;8.35;;;4.20;99.90;;;;;;5068952;28;20332;-62
2020/12/19 12:36:16;;;;;;;16.02;11.00;;;4.00;99.90;;;;;;5061867;28;20447;-62
2020/12/19 12:38:43;;;;;;;18.27;10.45;;;4.10;99.90;;;;;;5069133;28;20548;-62
2020/12/19 12:41:09;;;;;;;11.68;7.55;;;3.90;99.90;;;;;;5070032;28;20331;-61